Airport View

Enter AWOS ICAO identifier for current METAR.

ex. KFNL

KCKV 031652Z AUTO VRB05KT 10SM CLR 31/21 A3000 RMK AO2 SLP154 T03110206

3 Jul 2020 17:38

Frequency: 134.575

Phone: 931-431-3045

Other Area AWOS: KEOD - KHOP - KM91 - KM02

TAF KCKV 031133Z 0312/0412 05005KT P6SM FEW050 FEW250